createdAt,value
2022-10-31T00:01:35.939Z,11.10
2022-10-31T00:04:04.782Z,11.10
2022-10-31T00:06:32.691Z,11.10
2022-10-31T00:09:02.289Z,11.10
2022-10-31T00:11:30.205Z,11.10
2022-10-31T00:13:59.724Z,11.00
2022-10-31T00:16:28.882Z,10.90
2022-10-31T00:19:00.342Z,10.82
2022-10-31T00:21:28.391Z,10.78
2022-10-31T00:23:56.244Z,10.70
2022-10-31T00:26:24.216Z,10.80
2022-10-31T00:28:54.445Z,10.90
2022-10-31T00:31:24.281Z,10.90
2022-10-31T00:33:52.077Z,11.10
2022-10-31T00:36:20.500Z,11.20
2022-10-31T00:38:50.204Z,11.10
2022-10-31T00:41:18.685Z,11.00
2022-10-31T00:43:46.658Z,10.90
2022-10-31T00:46:15.643Z,10.90
2022-10-31T00:48:43.758Z,10.80
2022-10-31T00:51:11.761Z,10.80
2022-10-31T00:53:41.187Z,10.80
2022-10-31T00:56:09.394Z,10.80
2022-10-31T00:58:37.414Z,10.82
2022-10-31T01:01:05.526Z,10.90
2022-10-31T01:03:34.314Z,10.90
2022-10-31T01:06:08.205Z,10.86
2022-10-31T01:08:37.206Z,10.90
2022-10-31T01:11:16.536Z,10.90
2022-10-31T01:13:45.215Z,10.90
2022-10-31T01:16:19.356Z,10.90
2022-10-31T01:18:47.763Z,10.90
2022-10-31T01:21:22.391Z,10.80
2022-10-31T01:23:53.686Z,10.70
2022-10-31T01:26:27.827Z,10.62
2022-10-31T01:29:04.995Z,10.60
2022-10-31T01:31:36.458Z,10.50
2022-10-31T01:34:05.557Z,10.50
2022-10-31T01:36:36.155Z,10.50
2022-10-31T01:39:13.805Z,10.48
2022-10-31T01:41:50.748Z,10.40
2022-10-31T01:44:18.596Z,10.40
2022-10-31T01:46:52.297Z,10.20
2022-10-31T01:49:28.306Z,10.10
2022-10-31T01:52:03.093Z,10.10
2022-10-31T01:54:36.114Z,10.10
2022-10-31T01:57:04.443Z,10.10
2022-10-31T01:59:32.285Z,10.08
2022-10-31T02:02:00.252Z,10.10
2022-10-31T02:04:28.353Z,10.18
2022-10-31T02:07:05.185Z,10.20
2022-10-31T02:09:33.099Z,10.20
2022-10-31T02:12:03.639Z,10.20
2022-10-31T02:14:31.906Z,10.20
2022-10-31T02:17:00.281Z,10.20
2022-10-31T02:20:12.897Z,10.20
2022-10-31T02:23:09.228Z,10.30
2022-10-31T02:26:09.248Z,10.30
2022-10-31T02:29:30.362Z,10.32
2022-10-31T02:32:46.151Z,10.40
2022-10-31T02:35:24.063Z,10.40
2022-10-31T02:38:04.621Z,10.40
2022-10-31T02:41:21.060Z,10.30
2022-10-31T02:44:07.015Z,10.22
2022-10-31T02:46:54.447Z,10.20
2022-10-31T02:49:43.749Z,10.20
2022-10-31T02:52:25.039Z,10.20
2022-10-31T02:54:53.991Z,10.26
2022-10-31T02:57:26.816Z,10.30
2022-10-31T03:00:01.926Z,10.30
2022-10-31T03:03:03.001Z,10.30
2022-10-31T03:05:55.799Z,10.30
2022-10-31T03:08:43.936Z,10.30
2022-10-31T03:11:11.858Z,10.30
2022-10-31T03:14:12.061Z,10.26
2022-10-31T03:16:45.738Z,10.20
2022-10-31T03:19:43.505Z,10.20
2022-10-31T03:22:25.311Z,10.10
2022-10-31T03:24:53.598Z,10.20
2022-10-31T03:27:27.514Z,10.20
2022-10-31T03:29:58.724Z,10.20
2022-10-31T03:32:52.568Z,10.28
2022-10-31T03:35:24.920Z,10.22
2022-10-31T03:37:53.556Z,10.22
2022-10-31T03:40:23.054Z,10.30
2022-10-31T03:42:56.052Z,10.30
2022-10-31T03:45:29.882Z,10.30
2022-10-31T03:48:00.019Z,10.20
2022-10-31T03:50:36.877Z,10.20
2022-10-31T03:53:14.679Z,10.20
2022-10-31T03:55:49.917Z,10.28
2022-10-31T03:58:25.554Z,10.30
2022-10-31T04:00:54.644Z,10.30
2022-10-31T04:03:26.527Z,10.30
2022-10-31T04:05:56.553Z,10.30
2022-10-31T04:08:29.154Z,10.30
2022-10-31T04:10:57.714Z,10.30
2022-10-31T04:13:29.673Z,10.20
2022-10-31T04:16:01.236Z,10.20
2022-10-31T04:18:30.414Z,10.10
2022-10-31T04:21:04.664Z,10.10
2022-10-31T04:23:33.315Z,10.08
2022-10-31T04:26:02.511Z,10.10
2022-10-31T04:28:35.353Z,10.10
2022-10-31T04:31:03.716Z,10.00
2022-10-31T04:33:31.914Z,10.00
2022-10-31T04:35:59.705Z,10.00
2022-10-31T04:38:28.741Z,10.10
2022-10-31T04:40:56.893Z,10.10
2022-10-31T04:43:43.199Z,10.10
2022-10-31T04:46:11.144Z,10.00
2022-10-31T04:48:39.488Z,10.00
2022-10-31T04:51:08.272Z,10.00
2022-10-31T04:53:36.290Z,9.90
2022-10-31T04:56:23.319Z,9.88
2022-10-31T04:58:57.366Z,9.80
2022-10-31T05:01:26.473Z,9.80
2022-10-31T05:03:55.845Z,9.80
2022-10-31T05:06:23.775Z,9.74
2022-10-31T05:08:52.102Z,9.80
2022-10-31T05:11:21.354Z,9.90
2022-10-31T05:13:49.277Z,9.90
2022-10-31T05:16:36.987Z,9.90
2022-10-31T05:19:36.880Z,9.90
2022-10-31T05:22:23.348Z,9.90
2022-10-31T05:24:51.402Z,9.88
2022-10-31T05:27:19.614Z,9.80
2022-10-31T05:29:47.877Z,9.74
2022-10-31T05:32:15.817Z,9.72
2022-10-31T05:35:02.215Z,9.70
2022-10-31T05:37:57.015Z,9.70
2022-10-31T05:40:26.304Z,9.70
2022-10-31T05:42:57.889Z,9.70
2022-10-31T05:45:26.146Z,9.70
2022-10-31T05:48:00.851Z,9.80
2022-10-31T05:50:49.959Z,9.80
2022-10-31T05:53:18.119Z,9.90
2022-10-31T05:55:46.699Z,9.90
2022-10-31T05:58:21.015Z,9.96
2022-10-31T06:00:59.531Z,9.96
2022-10-31T06:03:28.411Z,9.96
2022-10-31T06:06:00.691Z,9.90
2022-10-31T06:08:36.427Z,9.90
2022-10-31T06:11:06.818Z,9.94
2022-10-31T06:13:53.369Z,10.02
2022-10-31T06:16:31.816Z,10.10
2022-10-31T06:19:05.045Z,10.20
2022-10-31T06:21:33.242Z,10.30
2022-10-31T06:24:01.417Z,10.36
2022-10-31T06:26:47.914Z,10.42
2022-10-31T06:29:16.820Z,10.50
2022-10-31T06:31:56.970Z,10.50
2022-10-31T06:34:25.530Z,10.50
2022-10-31T06:36:53.930Z,10.60
2022-10-31T06:39:23.987Z,10.60
2022-10-31T06:41:52.017Z,10.66
2022-10-31T06:44:21.372Z,10.72
2022-10-31T06:46:52.151Z,10.80
2022-10-31T06:49:47.775Z,10.90
2022-10-31T06:52:17.916Z,10.90
2022-10-31T06:54:45.794Z,11.00
2022-10-31T06:57:15.518Z,11.06
2022-10-31T06:59:43.539Z,11.10
2022-10-31T07:02:16.682Z,11.20
2022-10-31T07:04:45.205Z,11.30
2022-10-31T07:07:16.962Z,11.40
2022-10-31T07:09:44.825Z,11.48
2022-10-31T07:12:16.482Z,11.50
2022-10-31T07:14:49.363Z,11.60
2022-10-31T07:17:17.148Z,11.68
2022-10-31T07:19:45.513Z,11.72
2022-10-31T07:22:14.338Z,11.80
2022-10-31T07:24:42.473Z,11.90
2022-10-31T07:27:29.024Z,12.00
2022-10-31T07:29:56.764Z,12.02
2022-10-31T07:32:24.666Z,12.10
2022-10-31T07:34:55.166Z,12.20
2022-10-31T07:37:28.552Z,12.30
2022-10-31T07:39:57.353Z,12.40
2022-10-31T07:42:29.266Z,12.50
2022-10-31T07:44:57.848Z,12.58
2022-10-31T07:47:52.967Z,12.60
2022-10-31T07:50:43.571Z,12.70
2022-10-31T07:53:43.687Z,12.80
2022-10-31T07:56:17.392Z,12.88
2022-10-31T07:58:45.485Z,12.90
2022-10-31T08:01:14.562Z,13.00
2022-10-31T08:03:45.805Z,13.10
2022-10-31T08:06:32.339Z,13.14
2022-10-31T08:09:12.467Z,13.20
2022-10-31T08:11:40.632Z,13.30
2022-10-31T08:14:09.700Z,13.40
2022-10-31T08:16:37.704Z,13.42
2022-10-31T08:19:06.074Z,13.50
2022-10-31T08:21:38.355Z,13.52
2022-10-31T08:24:07.599Z,13.60
2022-10-31T08:26:35.530Z,13.60
2022-10-31T08:29:04.394Z,13.70
2022-10-31T08:31:37.659Z,13.80
2022-10-31T08:34:26.761Z,13.90
2022-10-31T08:37:19.858Z,14.00
2022-10-31T08:39:53.419Z,14.20
2022-10-31T08:42:22.622Z,14.28
2022-10-31T08:44:50.864Z,14.30
2022-10-31T08:47:21.353Z,14.36
2022-10-31T08:49:49.285Z,14.40
2022-10-31T08:52:17.108Z,14.42
2022-10-31T08:54:45.288Z,14.50
2022-10-31T08:57:32.032Z,14.50
2022-10-31T09:00:00.749Z,14.60
2022-10-31T09:03:06.606Z,14.70
2022-10-31T09:05:34.787Z,14.70
2022-10-31T09:08:04.741Z,14.80
2022-10-31T09:10:34.676Z,14.84
2022-10-31T09:13:10.138Z,15.00
2022-10-31T09:16:16.099Z,15.10
2022-10-31T09:18:44.493Z,15.20
2022-10-31T09:21:12.235Z,15.30
2022-10-31T09:23:40.087Z,15.40
2022-10-31T09:26:08.116Z,15.44
2022-10-31T09:28:38.898Z,15.54
2022-10-31T09:31:09.937Z,15.68
2022-10-31T09:33:56.706Z,15.80
2022-10-31T09:36:47.545Z,15.90
2022-10-31T09:39:19.939Z,16.00
2022-10-31T09:42:20.559Z,16.10
2022-10-31T09:45:40.143Z,16.10
2022-10-31T09:48:43.636Z,16.20
2022-10-31T09:51:35.725Z,16.30
2022-10-31T09:54:41.458Z,16.30
2022-10-31T09:57:16.356Z,16.40
2022-10-31T09:59:48.117Z,16.50
2022-10-31T10:02:24.671Z,16.50
2022-10-31T10:05:27.468Z,16.60
2022-10-31T10:08:13.051Z,16.70
2022-10-31T10:11:29.558Z,16.80
2022-10-31T10:14:55.944Z,16.98
2022-10-31T10:17:39.648Z,17.00
2022-10-31T10:20:24.404Z,17.10
2022-10-31T10:23:35.688Z,17.20
2022-10-31T10:26:18.612Z,17.30
2022-10-31T10:29:16.034Z,17.40
2022-10-31T10:31:43.837Z,17.50
2022-10-31T10:34:25.571Z,17.50
2022-10-31T10:37:01.771Z,17.60
2022-10-31T10:39:38.345Z,17.70
2022-10-31T10:42:34.056Z,17.78
2022-10-31T10:45:34.726Z,17.70
2022-10-31T10:48:17.330Z,17.70
2022-10-31T10:50:50.408Z,17.72
2022-10-31T10:54:01.182Z,17.80
2022-10-31T10:59:49.932Z,18.08
2022-10-31T11:02:28.358Z,18.10
2022-10-31T11:04:58.456Z,18.20
2022-10-31T11:07:26.167Z,18.20
2022-10-31T11:10:14.021Z,18.20
2022-10-31T11:12:42.276Z,18.20
2022-10-31T11:15:23.356Z,18.20
2022-10-31T11:17:53.391Z,18.20
2022-10-31T11:20:21.130Z,18.20
2022-10-31T11:22:49.512Z,18.20
2022-10-31T11:25:20.334Z,18.20
2022-10-31T11:27:48.253Z,18.20
2022-10-31T11:30:16.386Z,18.22
2022-10-31T11:32:49.290Z,18.20
2022-10-31T11:35:19.615Z,18.20
2022-10-31T11:37:48.870Z,18.20
2022-10-31T11:40:25.498Z,18.20
2022-10-31T11:42:58.011Z,18.20
2022-10-31T11:45:35.064Z,18.20
2022-10-31T11:48:04.414Z,18.20
2022-10-31T11:50:39.807Z,18.20
2022-10-31T11:53:28.223Z,18.30
2022-10-31T11:56:16.977Z,18.30
2022-10-31T11:58:44.805Z,18.40
2022-10-31T12:01:44.118Z,18.40
2022-10-31T12:04:13.759Z,18.40
2022-10-31T12:06:43.437Z,18.40
2022-10-31T12:09:20.384Z,18.40
2022-10-31T12:12:31.036Z,18.50
2022-10-31T12:15:31.308Z,18.60
2022-10-31T12:18:29.282Z,18.60
2022-10-31T12:21:30.250Z,18.60
2022-10-31T12:24:22.257Z,18.60
2022-10-31T12:27:18.240Z,18.60
2022-10-31T12:30:13.182Z,18.60
2022-10-31T12:32:53.340Z,18.60
2022-10-31T12:38:36.175Z,18.60
2022-10-31T12:41:15.574Z,18.60
2022-10-31T12:43:52.836Z,18.60
2022-10-31T12:46:42.569Z,18.60
2022-10-31T12:49:37.190Z,18.60
2022-10-31T12:52:36.169Z,18.62
2022-10-31T12:55:17.885Z,18.66
2022-10-31T12:57:53.577Z,18.60
2022-10-31T13:00:22.570Z,18.60
2022-10-31T13:03:01.508Z,18.60
2022-10-31T13:05:47.066Z,18.60
2022-10-31T13:08:21.433Z,18.50
2022-10-31T13:10:53.616Z,18.50
2022-10-31T13:13:52.800Z,18.50
2022-10-31T13:16:23.950Z,18.50
2022-10-31T13:19:02.560Z,18.50
2022-10-31T13:21:37.840Z,18.50
2022-10-31T13:24:13.524Z,18.50
2022-10-31T13:26:51.604Z,18.50
2022-10-31T13:29:37.371Z,18.40
2022-10-31T13:32:06.608Z,18.28
2022-10-31T13:34:40.895Z,18.10
2022-10-31T13:37:33.726Z,18.00
2022-10-31T13:40:34.551Z,17.90
2022-10-31T13:43:13.300Z,17.80
2022-10-31T13:45:55.157Z,17.70
2022-10-31T13:48:25.928Z,17.60
2022-10-31T13:51:03.375Z,17.60
2022-10-31T13:53:54.752Z,17.50
2022-10-31T13:56:26.157Z,17.50
2022-10-31T13:59:20.896Z,17.40
2022-10-31T14:02:16.607Z,17.38
2022-10-31T14:04:59.341Z,17.30
2022-10-31T14:07:27.610Z,17.20
2022-10-31T14:10:29.194Z,17.20
2022-10-31T14:13:24.049Z,17.20
2022-10-31T14:16:12.494Z,17.14
2022-10-31T14:22:32.613Z,17.02
2022-10-31T14:24:58.962Z,17.00
2022-10-31T14:27:25.888Z,16.92
2022-10-31T14:29:52.388Z,16.90
2022-10-31T14:32:23.934Z,16.74
2022-10-31T14:34:50.372Z,16.60
2022-10-31T14:37:28.811Z,16.58
2022-10-31T14:40:17.724Z,16.50
2022-10-31T14:43:09.209Z,16.40
2022-10-31T14:45:48.006Z,16.30
2022-10-31T14:48:54.459Z,16.18
2022-10-31T14:51:23.189Z,16.04
2022-10-31T14:53:51.123Z,16.00
2022-10-31T14:56:25.841Z,15.90
2022-10-31T14:58:52.157Z,15.80
2022-10-31T15:01:27.018Z,15.74
2022-10-31T15:04:18.105Z,15.66
2022-10-31T15:06:46.295Z,15.54
2022-10-31T15:09:22.906Z,15.40
2022-10-31T15:11:49.299Z,15.20
2022-10-31T15:14:32.160Z,15.10
2022-10-31T15:16:59.775Z,15.00
2022-10-31T15:19:28.684Z,14.90
2022-10-31T15:21:56.465Z,14.90
2022-10-31T15:24:26.053Z,14.80
2022-10-31T15:26:53.484Z,14.78
2022-10-31T15:29:25.110Z,14.70
2022-10-31T15:32:20.352Z,14.60
2022-10-31T15:34:46.672Z,14.60
2022-10-31T15:37:15.360Z,14.56
2022-10-31T15:39:42.771Z,14.50
2022-10-31T15:42:39.668Z,14.50
2022-10-31T15:45:12.396Z,14.48
2022-10-31T15:47:38.954Z,14.40
2022-10-31T15:50:18.328Z,14.40
2022-10-31T15:52:48.267Z,14.40
2022-10-31T15:55:24.707Z,14.36
2022-10-31T15:58:12.470Z,14.30
2022-10-31T16:00:39.078Z,14.22
2022-10-31T16:03:14.720Z,14.20
2022-10-31T16:05:52.523Z,14.20
2022-10-31T16:08:31.985Z,14.10
2022-10-31T16:11:07.920Z,14.10
2022-10-31T16:13:38.111Z,14.10
2022-10-31T16:16:45.850Z,14.10
2022-10-31T16:19:04.344Z,14.10
2022-10-31T16:21:38.022Z,14.10
2022-10-31T16:24:24.074Z,14.10
2022-10-31T16:26:52.847Z,14.10
2022-10-31T16:29:33.166Z,14.10
2022-10-31T16:31:59.479Z,14.00
2022-10-31T16:34:27.032Z,14.00
2022-10-31T16:36:53.959Z,13.90
2022-10-31T16:39:20.508Z,13.86
2022-10-31T16:41:50.977Z,13.80
2022-10-31T16:44:26.787Z,13.80
2022-10-31T16:47:14.978Z,13.80
2022-10-31T16:49:43.188Z,13.78
2022-10-31T16:52:09.730Z,13.70
2022-10-31T16:54:36.142Z,13.70
2022-10-31T16:57:04.232Z,13.70
2022-10-31T16:59:30.731Z,13.70
2022-10-31T17:01:57.508Z,13.70
2022-10-31T17:04:24.488Z,13.70
2022-10-31T17:06:50.982Z,13.60
2022-10-31T17:09:17.454Z,13.62
2022-10-31T17:11:49.714Z,13.68
2022-10-31T17:14:17.467Z,13.60
2022-10-31T17:16:43.755Z,13.60
2022-10-31T17:19:11.666Z,13.60
2022-10-31T17:21:38.282Z,13.60
2022-10-31T17:24:05.571Z,13.50
2022-10-31T17:26:32.005Z,13.50
2022-10-31T17:29:01.360Z,13.42
2022-10-31T17:31:30.577Z,13.40
2022-10-31T17:34:02.092Z,13.40
2022-10-31T17:36:31.646Z,13.30
2022-10-31T17:38:58.243Z,13.20
2022-10-31T17:41:24.738Z,13.20
2022-10-31T17:43:55.952Z,13.20
2022-10-31T17:46:22.371Z,13.10
2022-10-31T17:48:48.911Z,13.10
2022-10-31T17:51:15.354Z,13.10
2022-10-31T17:53:41.976Z,13.10
2022-10-31T17:56:09.031Z,13.10
2022-10-31T17:58:37.936Z,13.02
2022-10-31T18:01:13.784Z,13.10
2022-10-31T18:03:42.781Z,13.10
2022-10-31T18:06:16.141Z,13.00
2022-10-31T18:08:43.065Z,13.00
2022-10-31T18:11:19.379Z,13.00
2022-10-31T18:13:54.041Z,13.00
2022-10-31T18:16:24.500Z,12.92
2022-10-31T18:18:58.710Z,12.90
2022-10-31T18:21:25.471Z,12.90
2022-10-31T18:23:55.795Z,12.88
2022-10-31T18:26:23.003Z,12.80
2022-10-31T18:28:49.343Z,12.80
2022-10-31T18:31:16.423Z,12.70
2022-10-31T18:33:42.862Z,12.70
2022-10-31T18:36:09.700Z,12.66
2022-10-31T18:38:41.052Z,12.60
2022-10-31T18:41:08.404Z,12.70
2022-10-31T18:43:34.820Z,12.70
2022-10-31T18:46:03.487Z,12.70
2022-10-31T18:48:31.080Z,12.60
2022-10-31T18:53:36.864Z,12.50
2022-10-31T18:56:09.031Z,12.46
2022-10-31T18:58:35.990Z,12.40
2022-10-31T19:01:10.674Z,12.40
2022-10-31T19:03:37.937Z,12.40
2022-10-31T19:06:04.881Z,12.30
2022-10-31T19:08:31.379Z,12.24
2022-10-31T19:11:08.900Z,12.26
2022-10-31T19:13:35.860Z,12.20
2022-10-31T19:16:10.325Z,12.18
2022-10-31T19:18:37.226Z,12.10
2022-10-31T19:21:12.361Z,12.10
2022-10-31T19:23:39.150Z,12.10
2022-10-31T19:26:05.881Z,12.00
2022-10-31T19:28:33.855Z,11.90
2022-10-31T19:31:00.441Z,11.90
2022-10-31T19:33:33.272Z,11.88
2022-10-31T19:36:12.689Z,11.82
2022-10-31T19:38:41.861Z,11.80
2022-10-31T19:41:28.877Z,11.70
2022-10-31T19:43:55.613Z,11.70
2022-10-31T19:46:40.382Z,11.70
2022-10-31T19:49:11.314Z,11.62
2022-10-31T19:51:37.951Z,11.60
2022-10-31T19:54:04.599Z,11.60
2022-10-31T19:56:33.630Z,11.60
2022-10-31T19:59:00.223Z,11.60
2022-10-31T20:01:26.693Z,11.60
2022-10-31T20:03:53.292Z,11.60
2022-10-31T20:06:37.860Z,11.60
2022-10-31T20:09:09.001Z,11.60
2022-10-31T20:11:37.164Z,11.66
2022-10-31T20:14:03.601Z,11.60
2022-10-31T20:16:30.049Z,11.60
2022-10-31T20:18:58.923Z,11.60
2022-10-31T20:21:27.889Z,11.60
2022-10-31T20:24:00.006Z,11.58
2022-10-31T20:26:26.925Z,11.50
2022-10-31T20:28:56.118Z,11.50
2022-10-31T20:31:24.720Z,11.50
2022-10-31T20:33:51.892Z,11.54
2022-10-31T20:36:19.006Z,11.52
2022-10-31T20:38:45.374Z,11.50
2022-10-31T20:41:11.937Z,11.50
2022-10-31T20:43:38.839Z,11.50
2022-10-31T20:46:14.224Z,11.50
2022-10-31T20:48:40.792Z,11.50
2022-10-31T20:51:11.972Z,11.44
2022-10-31T20:53:38.486Z,11.50
2022-10-31T20:56:16.678Z,11.50
2022-10-31T20:58:43.417Z,11.50
2022-10-31T21:01:24.205Z,11.50
2022-10-31T21:03:51.193Z,11.50
2022-10-31T21:06:18.592Z,11.50
2022-10-31T21:08:45.277Z,11.46
2022-10-31T21:11:15.552Z,11.40
2022-10-31T21:13:43.958Z,11.40
2022-10-31T21:16:13.407Z,11.40
2022-10-31T21:18:41.358Z,11.40
2022-10-31T21:21:21.658Z,11.40
2022-10-31T21:23:48.092Z,11.50
2022-10-31T21:26:20.519Z,11.50
2022-10-31T21:28:48.338Z,11.52
2022-10-31T21:31:16.302Z,11.60
2022-10-31T21:33:43.962Z,11.60
2022-10-31T21:36:10.517Z,11.60
2022-10-31T21:38:37.540Z,11.60
2022-10-31T21:41:10.323Z,11.60
2022-10-31T21:43:38.647Z,11.64
2022-10-31T21:46:09.433Z,11.60
2022-10-31T21:48:38.835Z,11.60
2022-10-31T21:51:06.089Z,11.60
2022-10-31T21:53:51.262Z,11.50
2022-10-31T21:56:17.748Z,11.48
2022-10-31T21:58:44.130Z,11.40
2022-10-31T22:01:10.760Z,11.38
2022-10-31T22:03:38.599Z,11.30
2022-10-31T22:06:11.577Z,11.40
2022-10-31T22:08:40.096Z,11.30
2022-10-31T22:11:15.559Z,11.30
2022-10-31T22:13:44.434Z,11.30
2022-10-31T22:16:13.217Z,11.30
2022-10-31T22:18:39.863Z,11.20
2022-10-31T22:21:09.598Z,11.20
2022-10-31T22:23:36.180Z,11.20
2022-10-31T22:26:04.280Z,11.16
2022-10-31T22:28:31.835Z,11.10
2022-10-31T22:30:58.428Z,11.10
2022-10-31T22:33:25.271Z,11.02
2022-10-31T22:35:51.744Z,11.00
2022-10-31T22:38:18.098Z,11.00
2022-10-31T22:40:44.619Z,10.90
2022-10-31T22:43:11.154Z,10.90
2022-10-31T22:45:37.588Z,10.90
2022-10-31T22:48:04.992Z,10.80
2022-10-31T22:50:32.138Z,10.80
2022-10-31T22:52:58.617Z,10.80
2022-10-31T22:55:24.924Z,10.80
2022-10-31T22:57:51.383Z,10.80
2022-10-31T23:00:18.535Z,10.80
2022-10-31T23:02:44.964Z,10.70
2022-10-31T23:05:11.367Z,10.70
2022-10-31T23:07:39.784Z,10.70
2022-10-31T23:10:07.095Z,10.70
2022-10-31T23:12:52.198Z,10.60
2022-10-31T23:15:18.561Z,10.60
2022-10-31T23:17:44.975Z,10.50
2022-10-31T23:20:11.339Z,10.40
2022-10-31T23:22:38.687Z,10.50
2022-10-31T23:25:05.693Z,10.50
2022-10-31T23:27:32.127Z,10.50
2022-10-31T23:29:59.129Z,10.50
2022-10-31T23:32:26.429Z,10.50
2022-10-31T23:34:58.422Z,10.50
2022-10-31T23:37:27.538Z,10.50
2022-10-31T23:39:54.019Z,10.40
2022-10-31T23:42:20.710Z,10.38
2022-10-31T23:44:47.073Z,10.36
2022-10-31T23:47:13.766Z,10.30
2022-10-31T23:49:40.304Z,10.30
2022-10-31T23:52:07.045Z,10.30
2022-10-31T23:54:33.741Z,10.20
2022-10-31T23:57:00.933Z,10.20
2022-10-31T23:59:28.518Z,10.20
